Tabiona, Utah
Current Conditions -  °F | °C
As of 12:55 PM on Sunday 21 Dec 2014 (Local Time) from K36U Reporting Station
Unknown Precip Unknown Precip  
Wind Chill: 29°   Ceiling: 2000
Heat Index: 34°   Visibility: 5mi
Dew Point: 34°   Wind: 6mph
Humidity: 100%   Direction: 80°E
Pressure: 29.93"   Gusts: NA
Location:  40.35°N, 110.71°W
Report Text: K36U 211955Z AUTO 08005KT 5SM UP OVC020 01/01 A2993 RMK AO2
Loading
Personal Weather Stations






























Interactive Weather Map New forecast layout! Learn more

10-Day Weather Forecast

Advertisements
Track Severe Weather on mobile